Arrantzale — EBVT — position and weather

sailwx.info

Track history (hours):
 
Tides and Currents Weather Stations Pressure Air Temp Water Temp Dewpoint Dewpoint Depression Visibility Wind Speed Wind Dir Waves Ship Positions

Arrantzale

Last reported at 2016-Jun-23 18:33 UTC. Time now 2016-Jun-26 19:11 UTC.
Position N 43°36' W 001°42'.

Length 32 m.

Type: Fishing. MMSI: 224065290.

Date/timePositionNaut miles runAvg speedWind from/ knotsBaromVisibWave heightAir tempDewpointWater temp
2016-Jun-23 18:33N 43°36' W 001°42'9 9.0
2016-Jun-23 17:32N 43°27' W 001°46'4 4.0
2016-Jun-23 16:33N 43°23' W 001°47'0 0.0
2016-Jun-23 15:33N 43°23' W 001°47'0 0.0
2016-Jun-23 08:33N 43°23' W 001°47'0 0.1
2016-Jun-23 07:33N 43°23' W 001°47'0 0.0
2016-Jun-22 16:14N 43°23' W 001°48'0 0.0
2016-Jun-22 15:31N 43°23' W 001°48'0 0.0
2016-Jun-22 14:32N 43°23' W 001°48'0 0.0
2016-Jun-22 13:33N 43°23' W 001°48'0 0.0
2016-Jun-22 12:33N 43°23' W 001°48'0 0.0
2016-Jun-22 11:33N 43°23' W 001°48'0 0.0
2016-Jun-22 10:33N 43°23' W 001°48'0 0.0
2016-Jun-22 09:33N 43°23' W 001°48'0 0.0
2016-Jun-22 08:33N 43°23' W 001°48'0 0.0
2016-Jun-22 07:33N 43°23' W 001°48'0 0.0
2016-Jun-22 06:33N 43°23' W 001°48'0 0.0
2016-Jun-22 03:29N 43°23' W 001°48'2 1.6
2016-Jun-22 02:32N 43°25' W 001°48'13910.7
2016-Jun-21 13:33N 43°42' W 004°58'1510.1
2016-Jun-21 12:05N 43°44' W 005°18'6 9.8
2016-Jun-21 11:31N 43°45' W 005°26'10 9.9
2016-Jun-21 10:29N 43°46' W 005°40'20 0.9
2016-Jun-20 13:33N 43°44' W 006°07'11 9.9
2016-Jun-20 12:28N 43°45' W 005°52'11 9.2
2016-Jun-20 11:19N 43°45' W 005°38'7 8.2
2016-Jun-20 10:29N 43°46' W 005°47'31 8.9
2016-Jun-20 07:05N 43°46' W 005°05'710.0
2016-Jun-20 06:25N 43°45' W 004°56'137 9.9
2016-Jun-19 16:33N 43°25' W 001°49'  
2016-Jun-17 11:33N 43°23' W 001°47'0 0.0
2016-Jun-17 10:33N 43°23' W 001°47'0 0.0
2016-Jun-17 09:15N 43°23' W 001°47'0 0.0
2016-Jun-17 08:33N 43°23' W 001°47'0 0.0
2016-Jun-15 10:20N 43°23' W 001°47'4 0.2
2016-Jun-14 15:09N 43°27' W 001°46'4 2.1
2016-Jun-14 13:08N 43°23' W 001°47'0 0.1
2016-Jun-14 12:33N 43°23' W 001°48'0 0.0
2016-Jun-14 11:30N 43°23' W 001°48'0 0.0
2016-Jun-14 10:31N 43°23' W 001°48'0 0.0
2016-Jun-14 09:28N 43°23' W 001°48'0 0.0
2016-Jun-14 07:32N 43°23' W 001°48'  
Track history (hours):
 
Tides and Currents Weather Stations Pressure Air Temp Water Temp Dewpoint Dewpoint Depression Visibility Wind Speed Wind Dir Waves Ship Positions

Arrantzale

Last reported at 2016-Jun-23 18:33 UTC. Time now 2016-Jun-26 19:11 UTC.
Position N 43°36' W 001°42'.

Length 32 m.

Type: Fishing. MMSI: 224065290.

Date/timePositionNaut miles runAvg speedWind from/ knotsBaromVisibWave heightAir tempDewpointWater temp
2016-Jun-23 18:33N 43°36' W 001°42'9 9.0
2016-Jun-23 17:32N 43°27' W 001°46'4 4.0
2016-Jun-23 16:33N 43°23' W 001°47'0 0.0
2016-Jun-23 15:33N 43°23' W 001°47'0 0.0
2016-Jun-23 08:33N 43°23' W 001°47'0 0.1
2016-Jun-23 07:33N 43°23' W 001°47'0 0.0
2016-Jun-22 16:14N 43°23' W 001°48'0 0.0
2016-Jun-22 15:31N 43°23' W 001°48'0 0.0
2016-Jun-22 14:32N 43°23' W 001°48'0 0.0
2016-Jun-22 13:33N 43°23' W 001°48'0 0.0
2016-Jun-22 12:33N 43°23' W 001°48'0 0.0
2016-Jun-22 11:33N 43°23' W 001°48'0 0.0
2016-Jun-22 10:33N 43°23' W 001°48'0 0.0
2016-Jun-22 09:33N 43°23' W 001°48'0 0.0
2016-Jun-22 08:33N 43°23' W 001°48'0 0.0
2016-Jun-22 07:33N 43°23' W 001°48'0 0.0
2016-Jun-22 06:33N 43°23' W 001°48'0 0.0
2016-Jun-22 03:29N 43°23' W 001°48'2 1.6
2016-Jun-22 02:32N 43°25' W 001°48'13910.7
2016-Jun-21 13:33N 43°42' W 004°58'1510.1
2016-Jun-21 12:05N 43°44' W 005°18'6 9.8
2016-Jun-21 11:31N 43°45' W 005°26'10 9.9
2016-Jun-21 10:29N 43°46' W 005°40'20 0.9
2016-Jun-20 13:33N 43°44' W 006°07'11 9.9
2016-Jun-20 12:28N 43°45' W 005°52'11 9.2
2016-Jun-20 11:19N 43°45' W 005°38'7 8.2
2016-Jun-20 10:29N 43°46' W 005°47'31 8.9
2016-Jun-20 07:05N 43°46' W 005°05'710.0
2016-Jun-20 06:25N 43°45' W 004°56'137 9.9
2016-Jun-19 16:33N 43°25' W 001°49'  
2016-Jun-17 11:33N 43°23' W 001°47'0 0.0
2016-Jun-17 10:33N 43°23' W 001°47'0 0.0
2016-Jun-17 09:15N 43°23' W 001°47'0 0.0
2016-Jun-17 08:33N 43°23' W 001°47'0 0.0
2016-Jun-15 10:20N 43°23' W 001°47'4 0.2
2016-Jun-14 15:09N 43°27' W 001°46'4 2.1
2016-Jun-14 13:08N 43°23' W 001°47'0 0.1
2016-Jun-14 12:33N 43°23' W 001°48'0 0.0
2016-Jun-14 11:30N 43°23' W 001°48'0 0.0
2016-Jun-14 10:31N 43°23' W 001°48'0 0.0
2016-Jun-14 09:28N 43°23' W 001°48'0 0.0
2016-Jun-14 07:32N 43°23' W 001°48'  

Dump ship's entire track history